Time;durP1;ratioP1;P1;durP2;ratioP2;P2;SDS_P1;SDS_P2;PMS_P1;PMS_P2;Temp;Humidity;BMP_temperature;BMP_pressure;BME280_temperature;BME280_humidity;BME280_pressure;Samples;Min_cycle;Max_cycle;Signal;HPM_P1;HPM_P2
2023/12/06 05:06:44;;;;;;;44.10;28.27;;;;;;;5.08;100.00;100243.63;5607731;31;79367;-56
2023/12/06 05:09:47;;;;;;;38.17;24.17;;;;;;;5.08;100.00;100243.63;5598675;31;34094;-56
2023/12/06 05:12:49;;;;;;;33.22;22.23;;;;;;;4.71;100.00;100251.38;5588956;31;34187;-56
2023/12/06 05:15:52;;;;;;;35.97;24.80;;;;;;;4.93;100.00;100268.16;5572123;31;33665;-56
2023/12/06 05:18:54;;;;;;;38.17;25.08;;;;;;;5.27;100.00;100261.94;5573116;31;33545;-55
2023/12/06 05:21:57;;;;;;;30.20;21.23;;;;;;;5.23;100.00;100271.41;5582690;32;33601;-56
2023/12/06 05:24:59;;;;;;;34.00;22.23;;;;;;;5.32;100.00;100268.09;5583188;31;34239;-56
2023/12/06 05:28:02;;;;;;;34.97;22.67;;;;;;;5.46;100.00;100265.84;5583523;32;34250;-56
2023/12/06 05:31:04;;;;;;;30.80;21.20;;;;;;;5.83;100.00;100265.19;5589344;31;33767;-56
2023/12/06 05:34:07;;;;;;;32.03;24.15;;;;;;;5.79;100.00;100258.75;5601169;31;34204;-56
2023/12/06 05:37:09;;;;;;;30.60;22.23;;;;;;;5.75;100.00;100253.13;5602914;31;34251;-56
2023/12/06 05:40:12;;;;;;;30.65;20.80;;;;;;;5.66;99.97;100257.28;5591715;31;33541;-56
2023/12/06 05:43:15;;;;;;;30.48;21.05;;;;;;;5.06;95.61;100253.69;5583335;31;34243;-56
2023/12/06 05:46:18;;;;;;;29.87;20.88;;;;;;;5.41;100.00;100263.16;5583129;32;33966;-56
2023/12/06 05:49:20;;;;;;;28.98;20.90;;;;;;;5.53;100.00;100257.69;5581699;31;33639;-56
2023/12/06 05:52:23;;;;;;;30.77;20.48;;;;;;;5.66;100.00;100254.63;5588197;31;33781;-56
2023/12/06 05:55:26;;;;;;;29.83;20.67;;;;;;;5.68;100.00;100260.50;5602866;31;34535;-56
2023/12/06 05:58:28;;;;;;;30.60;21.50;;;;;;;5.64;100.00;100244.25;5602433;31;33510;-56
2023/12/06 06:01:30;;;;;;;30.02;20.83;;;;;;;5.69;100.00;100245.34;5594760;31;34064;-56
2023/12/06 06:04:33;;;;;;;31.92;21.98;;;;;;;5.84;100.00;100240.19;5591730;31;33242;-56
2023/12/06 06:07:36;;;;;;;28.25;19.83;;;;;;;5.88;100.00;100244.75;5601856;31;34235;-56
2023/12/06 06:10:39;;;;;;;26.30;18.70;;;;;;;5.42;97.92;100251.44;5600474;31;34321;-56
2023/12/06 06:13:41;;;;;;;29.42;19.95;;;;;;;5.50;100.00;100250.22;5586701;31;33767;-56
2023/12/06 06:16:44;;;;;;;31.08;20.80;;;;;;;5.53;100.00;100250.53;5594379;31;32203;-56
2023/12/06 06:19:47;;;;;;;28.92;20.50;;;;;;;5.52;100.00;100251.56;5589183;31;34562;-56
2023/12/06 06:22:50;;;;;;;29.05;20.75;;;;;;;5.58;100.00;100255.09;5580673;31;34329;-57
2023/12/06 06:25:52;;;;;;;28.83;19.70;;;;;;;5.31;97.31;100263.84;5580108;31;33556;-56
2023/12/06 06:28:54;;;;;;;28.85;20.27;;;;;;;5.42;97.69;100262.09;5585104;31;34378;-56
2023/12/06 06:31:57;;;;;;;30.05;21.30;;;;;;;5.30;100.00;100269.41;5583372;31;33651;-56
2023/12/06 06:34:59;;;;;;;34.42;22.70;;;;;;;5.77;100.00;100266.19;5580231;31;33710;-56
2023/12/06 06:38:02;;;;;;;28.25;20.37;;;;;;;5.92;100.00;100268.19;5588786;31;33702;-56
2023/12/06 06:41:04;;;;;;;28.15;19.65;;;;;;;5.48;100.00;100260.31;5588526;31;34358;-56
2023/12/06 06:44:08;;;;;;;31.60;21.65;;;;;;;5.63;100.00;100271.91;5567998;31;33930;-56
2023/12/06 06:47:10;;;;;;;33.47;23.55;;;;;;;5.59;100.00;100257.47;5569311;32;33852;-56
2023/12/06 06:50:12;;;;;;;33.45;23.50;;;;;;;5.84;100.00;100267.59;5569103;32;33432;-56
2023/12/06 06:53:15;;;;;;;32.63;21.52;;;;;;;5.79;100.00;100274.72;5578089;31;33512;-56
2023/12/06 06:56:20;;;;;;;32.30;21.60;;;;;;;5.64;100.00;100264.72;5570258;31;33876;-56
2023/12/06 06:59:22;;;;;;;33.40;22.35;;;;;;;5.70;100.00;100268.25;5583158;31;33045;-57
2023/12/06 07:02:25;;;;;;;30.45;21.37;;;;;;;5.56;100.00;100275.78;5581596;31;33314;-56
2023/12/06 07:05:29;;;;;;;32.85;22.52;;;;;;;5.47;100.00;100277.31;5584129;31;34159;-56
2023/12/06 07:08:32;;;;;;;33.50;22.27;;;;;;;5.47;100.00;100277.31;5588440;31;34309;-56
2023/12/06 07:11:34;;;;;;;30.95;21.67;;;;;;;5.69;100.00;100274.59;5567991;31;33663;-56
2023/12/06 07:14:37;;;;;;;36.95;23.50;;;;;;;5.53;100.00;100281.59;5575927;31;33702;-56
2023/12/06 07:17:39;;;;;;;32.10;21.25;;;;;;;5.73;100.00;100273.03;5564070;31;34333;-56
2023/12/06 07:20:41;;;;;;;35.10;22.98;;;;;;;5.33;100.00;100282.19;5556930;32;33702;-56
2023/12/06 07:23:50;;;;;;;32.33;22.15;;;;;;;5.22;96.87;100285.78;5549227;32;34391;-56
2023/12/06 07:26:53;;;;;;;30.08;21.62;;;;;;;5.38;100.00;100291.03;5557686;32;33564;-56
2023/12/06 07:29:56;;;;;;;30.37;20.98;;;;;;;5.60;100.00;100292.88;5559354;32;33606;-56
2023/12/06 07:32:59;;;;;;;31.70;21.85;;;;;;;5.40;100.00;100294.25;5555721;31;33561;-55
2023/12/06 07:36:05;;;;;;;33.08;22.02;;;;;;;5.58;100.00;100290.47;5555355;32;33610;-56
2023/12/06 07:39:08;;;;;;;31.42;23.40;;;;;;;5.72;100.00;100284.75;5560490;32;33662;-56
2023/12/06 07:42:11;;;;;;;33.20;22.40;;;;;;;6.08;100.00;100289.41;5551181;32;33611;-56
2023/12/06 07:45:13;;;;;;;32.22;22.23;;;;;;;6.09;100.00;100288.34;5548903;32;33719;-56
2023/12/06 07:48:15;;;;;;;33.60;22.70;;;;;;;5.64;100.00;100291.31;5558349;31;33888;-56
2023/12/06 07:51:18;;;;;;;30.33;21.40;;;;;;;6.15;100.00;100280.41;5569431;31;33564;-56
2023/12/06 07:54:20;;;;;;;29.52;21.95;;;;;;;5.93;100.00;100289.28;5568932;31;33668;-56
2023/12/06 07:57:27;;;;;;;29.87;21.65;;;;;;;5.70;100.00;100287.69;5554178;32;33679;-56
2023/12/06 08:00:29;;;;;;;31.08;22.13;;;;;;;5.87;100.00;100284.91;5558481;32;34362;-56
2023/12/06 08:03:32;;;;;;;35.40;23.38;;;;;;;6.02;100.00;100294.91;5570540;31;34148;-56
2023/12/06 08:06:35;;;;;;;33.08;22.23;;;;;;;6.03;100.00;100291.22;5568067;32;33149;-56
2023/12/06 08:09:39;;;;;;;33.70;23.73;;;;;;;6.27;100.00;100291.69;5560313;32;33870;-57
2023/12/06 08:12:44;;;;;;;33.42;22.55;;;;;;;6.22;100.00;100294.31;5570223;31;33693;-56
2023/12/06 08:15:46;;;;;;;32.45;22.42;;;;;;;6.40;100.00;100285.94;5568587;31;34401;-56
2023/12/06 08:18:48;;;;;;;32.45;22.70;;;;;;;5.99;100.00;100290.91;5554570;31;33344;-56
2023/12/06 08:21:51;;;;;;;28.55;21.48;;;;;;;5.96;100.00;100291.44;5555399;31;33611;-56
2023/12/06 08:24:57;;;;;;;31.10;20.40;;;;;;;6.00;100.00;100286.41;5561066;32;34300;-56
2023/12/06 08:28:00;;;;;;;26.83;19.98;;;;;;;6.22;100.00;100299.62;5563769;32;33520;-56
2023/12/06 08:31:02;;;;;;;29.20;20.73;;;;;;;6.03;100.00;100292.03;5565898;32;34226;-56
2023/12/06 08:34:05;;;;;;;27.90;21.62;;;;;;;5.89;97.50;100299.59;5564385;32;34397;-56
2023/12/06 08:37:08;;;;;;;33.88;22.80;;;;;;;5.72;100.00;100292.72;5553859;32;33570;-56
2023/12/06 08:40:12;;;;;;;30.73;23.10;;;;;;;6.04;100.00;100288.31;5555537;32;33685;-56
2023/12/06 08:43:14;;;;;;;29.98;21.55;;;;;;;5.98;100.00;100291.97;5563649;31;33686;-56
2023/12/06 08:46:18;;;;;;;32.03;21.60;;;;;;;6.13;100.00;100293.97;5587233;31;33114;-56
2023/12/06 08:49:20;;;;;;;32.97;22.92;;;;;;;6.23;100.00;100285.28;5569347;31;33842;-56
2023/12/06 08:52:23;;;;;;;31.65;22.73;;;;;;;5.89;98.36;100291.59;5567543;32;34269;-56
2023/12/06 08:55:25;;;;;;;29.37;21.00;;;;;;;5.79;99.68;100288.00;5560084;31;33781;-56
2023/12/06 08:58:28;;;;;;;33.75;22.60;;;;;;;6.38;100.00;100296.03;5556165;31;33375;-56
2023/12/06 09:01:31;;;;;;;38.20;23.60;;;;;;;6.72;100.00;100295.75;5555952;32;33533;-56
2023/12/06 09:04:34;;;;;;;30.42;22.35;;;;;;;6.95;100.00;100291.91;5558505;31;33574;-56
2023/12/06 09:07:37;;;;;;;33.08;21.52;;;;;;;6.78;100.00;100297.41;5562867;31;34283;-56
2023/12/06 09:10:39;;;;;;;31.98;22.83;;;;;;;6.72;100.00;100301.06;5562841;31;33701;-56
2023/12/06 09:13:42;;;;;;;36.67;23.75;;;;;;;6.69;100.00;100294.41;5552012;32;33519;-56
2023/12/06 09:16:44;;;;;;;32.42;22.27;;;;;;;6.58;100.00;100298.84;5555448;31;33673;-57
2023/12/06 09:19:46;;;;;;;30.25;21.02;;;;;;;6.54;100.00;100294.31;5561597;31;33966;-56
2023/12/06 09:22:50;;;;;;;30.27;22.20;;;;;;;6.68;100.00;100297.31;5555651;32;34350;-56
2023/12/06 09:25:52;;;;;;;31.25;21.35;;;;;;;6.21;100.00;100293.50;5552130;32;33676;-56
2023/12/06 09:28:55;;;;;;;31.77;22.70;;;;;;;6.52;100.00;100294.56;5567592;31;33653;-56
2023/12/06 09:31:57;;;;;;;29.85;21.58;;;;;;;6.35;100.00;100292.03;5561564;32;34286;-56
2023/12/06 09:35:00;;;;;;;32.42;22.98;;;;;;;6.00;99.86;100286.41;5561085;32;34311;-56
2023/12/06 09:38:02;;;;;;;29.73;21.33;;;;;;;5.90;94.53;100287.06;5549327;32;33449;-56
2023/12/06 09:41:06;;;;;;;28.70;21.08;;;;;;;5.83;93.77;100289.13;5566162;32;34275;-56
2023/12/06 09:44:08;;;;;;;29.70;22.67;;;;;;;5.57;96.25;100280.87;5556325;31;34295;-56
2023/12/06 09:47:11;;;;;;;30.25;23.27;;;;;;;5.94;100.00;100274.09;5556782;31;33388;-56
2023/12/06 09:50:14;;;;;;;31.20;22.27;;;;;;;6.47;100.00;100273.22;5561588;31;33129;-56
2023/12/06 09:53:20;;;;;;;30.25;21.23;;;;;;;6.93;100.00;100283.38;5564885;31;33132;-57
2023/12/06 09:56:25;;;;;;;32.78;22.13;;;;;;;6.34;98.33;100276.31;5553437;32;34293;-56
2023/12/06 09:59:28;;;;;;;33.22;23.27;;;;;;;6.45;100.00;100274.53;5553398;31;33666;-56
2023/12/06 10:02:46;;;;;;;30.33;22.27;;;;;;;6.16;94.42;100282.00;5565487;32;33284;-56
2023/12/06 10:05:56;;;;;;;30.45;22.87;;;;;;;6.47;100.00;100288.41;5560386;32;33471;-56
2023/12/06 10:08:59;;;;;;;31.80;23.40;;;;;;;6.68;100.00;100289.34;5582217;31;33724;-56
2023/12/06 10:12:09;;;;;;;31.92;22.08;;;;;;;6.61;100.00;100288.75;5562657;31;33867;-56
2023/12/06 10:15:11;;;;;;;33.05;22.67;;;;;;;6.56;100.00;100292.19;5557401;31;34466;-56
2023/12/06 10:18:14;;;;;;;34.35;23.52;;;;;;;6.25;100.00;100288.47;5570044;31;33824;-56
2023/12/06 10:21:17;;;;;;;34.65;24.45;;;;;;;6.25;100.00;100288.47;5584557;31;33300;-56
2023/12/06 10:24:20;;;;;;;31.30;22.67;;;;;;;6.09;97.33;100292.84;5573297;31;33661;-56
2023/12/06 10:27:23;;;;;;;32.15;22.60;;;;;;;5.99;96.13;100285.56;5557996;31;34430;-56
2023/12/06 10:30:27;;;;;;;31.20;22.67;;;;;;;5.89;94.22;100280.97;5566723;31;33754;-56
2023/12/06 10:33:31;;;;;;;32.90;21.40;;;;;;;5.83;92.55;100283.81;5576609;31;33929;-56
2023/12/06 10:36:35;;;;;;;28.73;20.98;;;;;;;5.78;100.00;100283.75;5576599;31;33620;-56
2023/12/06 10:39:38;;;;;;;28.20;20.58;;;;;;;6.05;100.00;100281.13;5559188;31;33454;-56
2023/12/06 10:42:48;;;;;;;31.10;21.75;;;;;;;6.23;100.00;100271.97;5567136;32;33668;-56
2023/12/06 10:45:51;;;;;;;25.37;18.35;;;;;;;6.06;93.36;100270.22;5565738;32;34332;-56
2023/12/06 10:48:55;;;;;;;29.77;20.48;;;;;;;5.92;90.22;100257.53;5566997;31;32040;-56
2023/12/06 10:51:58;;;;;;;27.73;20.30;;;;;;;5.93;91.82;100269.81;5565988;31;34298;-56
2023/12/06 10:55:03;;;;;;;30.48;21.23;;;;;;;5.83;95.33;100259.88;5569603;31;33624;-56
2023/12/06 10:58:08;;;;;;;28.80;21.23;;;;;;;5.80;91.82;100260.38;5563504;31;33766;-56
2023/12/06 11:01:13;;;;;;;28.50;20.33;;;;;;;5.88;90.11;100268.69;5563792;31;33646;-55
2023/12/06 11:04:16;;;;;;;29.48;20.80;;;;;;;5.88;100.00;100262.56;5560310;31;33728;-56
2023/12/06 11:07:46;;;;;;;33.00;22.05;;;;;;;6.08;100.00;100272.62;5552258;31;34322;-56
2023/12/06 11:11:12;;;;;;;29.12;21.05;;;;;;;5.98;100.00;100273.34;5560500;32;33382;-56
2023/12/06 11:14:23;;;;;;;30.92;21.30;;;;;;;6.01;93.43;100259.53;5566885;31;33154;-56
2023/12/06 11:17:44;;;;;;;26.40;19.52;;;;;;;6.00;92.08;100257.13;5573845;31;33624;-56
2023/12/06 11:20:47;;;;;;;27.87;19.77;;;;;;;6.08;100.00;100257.47;5566198;32;33696;-56
2023/12/06 11:23:51;;;;;;;27.50;19.87;;;;;;;6.27;100.00;100249.09;5549077;32;34390;-56
2023/12/06 11:26:55;;;;;;;26.60;19.87;;;;;;;6.20;94.43;100245.84;5549377;32;33680;-56
2023/12/06 11:29:58;;;;;;;28.35;18.87;;;;;;;6.06;92.23;100248.94;5558379;31;33642;-56
2023/12/06 11:33:02;;;;;;;29.00;20.20;;;;;;;6.65;100.00;100244.56;5560677;32;33571;-56
2023/12/06 11:36:17;;;;;;;28.85;21.00;;;;;;;6.69;100.00;100240.31;5550366;31;33618;-56
2023/12/06 11:39:21;;;;;;;30.65;20.90;;;;;;;6.94;100.00;100237.81;5556828;31;33586;-56
2023/12/06 11:42:23;;;;;;;28.35;20.30;;;;;;;6.48;92.66;100234.88;5564288;32;33313;-56
2023/12/06 11:45:32;;;;;;;28.35;19.10;;;;;;;6.29;92.78;100231.81;5558965;32;33860;-56
2023/12/06 11:48:40;;;;;;;26.83;18.15;;;;;;;6.23;92.67;100227.53;5565950;32;34176;-56
2023/12/06 11:51:42;;;;;;;27.65;18.92;;;;;;;6.38;100.00;100234.81;5551206;32;33320;-56
2023/12/06 11:54:45;;;;;;;28.05;19.42;;;;;;;6.69;100.00;100230.50;5564029;31;32255;-57
2023/12/06 11:58:10;;;;;;;28.20;19.77;;;;;;;7.02;100.00;100239.19;5560712;31;34432;-56
2023/12/06 12:01:14;;;;;;;28.98;19.50;;;;;;;6.59;100.00;100233.91;5561396;32;33841;-55
2023/12/06 12:04:17;;;;;;;32.25;19.70;;;;;;;6.52;100.00;100230.66;5564551;32;33202;-57
2023/12/06 12:07:19;;;;;;;28.45;19.37;;;;;;;6.40;98.60;100226.56;5562242;31;33374;-57
2023/12/06 12:10:27;;;;;;;30.30;20.67;;;;;;;6.54;96.90;100230.37;5560662;32;34341;-56
2023/12/06 12:13:36;;;;;;;29.95;20.62;;;;;;;6.54;95.98;100231.19;5553194;32;33695;-56
2023/12/06 12:16:39;;;;;;;27.90;20.80;;;;;;;6.30;95.88;100221.97;5558426;32;33743;-56
2023/12/06 12:19:42;;;;;;;28.75;20.42;;;;;;;6.22;97.19;100219.78;5562316;32;33904;-56
2023/12/06 12:22:52;;;;;;;28.48;21.15;;;;;;;6.45;100.00;100216.75;5565721;31;33314;-56
2023/12/06 12:25:55;;;;;;;27.83;20.42;;;;;;;6.65;100.00;100217.94;5564017;32;33767;-56
2023/12/06 12:28:59;;;;;;;28.80;21.33;;;;;;;6.82;100.00;100211.38;5556963;31;33523;-56
2023/12/06 12:32:03;;;;;;;30.98;21.58;;;;;;;6.85;100.00;100207.38;5561964;32;33716;-56
2023/12/06 12:35:07;;;;;;;29.23;18.80;;;;;;;6.85;100.00;100201.25;5557645;32;33831;-56
2023/12/06 12:38:10;;;;;;;27.08;20.23;;;;;;;6.64;94.50;100195.81;5562629;31;34347;-57
2023/12/06 12:41:13;;;;;;;27.70;18.62;;;;;;;6.70;100.00;100192.13;5563983;31;34402;-56
2023/12/06 12:44:16;;;;;;;27.90;19.95;;;;;;;6.93;100.00;100187.44;5555471;32;33770;-56
2023/12/06 12:47:19;;;;;;;27.52;19.95;;;;;;;7.18;100.00;100197.38;5552809;31;33317;-56
2023/12/06 12:50:22;;;;;;;28.90;19.08;;;;;;;7.13;100.00;100192.03;5563399;32;33748;-56
2023/12/06 12:53:26;;;;;;;25.83;19.05;;;;;;;7.04;100.00;100189.87;5561461;32;33686;-57
2023/12/06 12:56:29;;;;;;;26.25;17.87;;;;;;;6.62;90.03;100191.81;5562600;31;33339;-56
2023/12/06 12:59:32;;;;;;;26.15;18.42;;;;;;;6.38;94.32;100181.53;5566123;31;33707;-56
2023/12/06 13:02:34;;;;;;;27.98;18.00;;;;;;;6.37;93.00;100174.62;5557921;32;33782;-56
2023/12/06 13:05:37;;;;;;;26.40;18.75;;;;;;;6.17;91.66;100177.16;5552545;32;33515;-56
2023/12/06 13:08:43;;;;;;;30.00;20.90;;;;;;;6.29;96.02;100180.41;5557022;32;34192;-56
2023/12/06 13:11:46;;;;;;;28.43;20.67;;;;;;;6.00;95.33;100169.31;5564016;32;34947;-56
2023/12/06 13:14:49;;;;;;;29.10;20.92;;;;;;;6.19;100.00;100175.03;5555824;32;34323;-56
2023/12/06 13:17:52;;;;;;;31.40;21.52;;;;;;;6.16;100.00;100172.87;5558314;32;33659;-56
2023/12/06 13:20:54;;;;;;;33.55;24.02;;;;;;;6.38;100.00;100164.78;5562337;32;33734;-56
2023/12/06 13:23:57;;;;;;;31.67;23.02;;;;;;;6.57;100.00;100161.44;5561865;32;33690;-56
2023/12/06 13:26:59;;;;;;;31.15;22.37;;;;;;;6.82;100.00;100165.25;5559058;32;33755;-56
2023/12/06 13:30:03;;;;;;;31.70;23.10;;;;;;;6.82;100.00;100162.59;5557947;32;34307;-56
2023/12/06 13:33:05;;;;;;;30.67;23.67;;;;;;;7.40;100.00;100154.50;5557144;32;33657;-56
2023/12/06 13:36:08;;;;;;;31.98;22.83;;;;;;;7.30;100.00;100165.97;5554418;32;34263;-56
2023/12/06 13:39:11;;;;;;;31.60;22.27;;;;;;;6.94;97.76;100167.72;5557776;32;34386;-56
2023/12/06 13:42:17;;;;;;;33.55;23.20;;;;;;;6.67;100.00;100174.00;5560507;32;34213;-56
2023/12/06 13:45:19;;;;;;;30.40;23.35;;;;;;;6.89;100.00;100170.34;5560850;32;34310;-56
2023/12/06 13:48:22;;;;;;;31.17;22.23;;;;;;;6.89;100.00;100170.34;5555887;32;33659;-56
2023/12/06 13:51:24;;;;;;;33.90;22.73;;;;;;;6.30;91.94;100177.50;5552766;32;33620;-56
2023/12/06 13:54:27;;;;;;;31.58;21.73;;;;;;;6.58;100.00;100176.34;5569161;32;34466;-56
2023/12/06 13:57:30;;;;;;;31.05;22.45;;;;;;;6.79;100.00;100176.47;5565870;32;33706;-56
2023/12/06 14:00:34;;;;;;;34.13;23.50;;;;;;;6.49;98.74;100183.22;5558263;32;34354;-57
2023/12/06 14:03:37;;;;;;;31.75;22.75;;;;;;;6.31;96.16;100183.63;5568993;32;33574;-56
2023/12/06 14:06:41;;;;;;;31.60;22.10;;;;;;;6.17;99.67;100180.63;5566043;32;34301;-56
2023/12/06 14:09:44;;;;;;;30.15;22.33;;;;;;;6.37;99.94;100185.28;5568897;32;33612;-56
2023/12/06 14:12:46;;;;;;;29.70;20.88;;;;;;;6.27;96.10;100188.69;5569365;32;34345;-56
2023/12/06 14:15:49;;;;;;;28.40;19.45;;;;;;;6.40;100.00;100191.97;5568603;32;33932;-56
2023/12/06 14:18:51;;;;;;;30.10;21.52;;;;;;;5.97;100.00;100193.78;5569258;32;34381;-56
2023/12/06 14:21:54;;;;;;;28.87;20.33;;;;;;;6.45;100.00;100199.97;5561504;32;34434;-56
2023/12/06 14:24:58;;;;;;;28.62;20.23;;;;;;;6.66;100.00;100193.72;5567933;32;33760;-56
2023/12/06 14:28:01;;;;;;;32.35;20.17;;;;;;;6.70;100.00;100196.66;5568503;32;33660;-56
2023/12/06 14:31:04;;;;;;;32.55;22.17;;;;;;;6.56;100.00;100198.97;5569291;31;33143;-56
2023/12/06 14:34:09;;;;;;;31.62;22.40;;;;;;;7.15;100.00;100203.22;5566642;32;34294;-56
2023/12/06 14:37:11;;;;;;;32.55;21.90;;;;;;;6.76;100.00;100201.75;5567818;32;34287;-56
2023/12/06 14:40:14;;;;;;;28.83;21.30;;;;;;;6.58;100.00;100202.97;5559148;32;33754;-57
2023/12/06 14:43:22;;;;;;;26.58;20.17;;;;;;;6.85;100.00;100203.91;5550002;32;34393;-56
2023/12/06 14:46:26;;;;;;;30.88;21.60;;;;;;;6.72;100.00;100211.31;5559059;32;34400;-56
2023/12/06 14:49:28;;;;;;;29.40;21.70;;;;;;;6.69;100.00;100195.03;5566018;32;33769;-56
2023/12/06 14:52:31;;;;;;;28.95;20.70;;;;;;;6.29;92.67;100201.72;5558359;32;33706;-56
2023/12/06 14:55:33;;;;;;;33.05;21.62;;;;;;;6.34;100.00;100210.56;5553277;32;34438;-56
2023/12/06 14:58:37;;;;;;;28.98;20.58;;;;;;;6.19;100.00;100212.28;5548709;32;33586;-56
2023/12/06 15:01:39;;;;;;;26.90;20.55;;;;;;;5.91;98.42;100218.69;5548946;32;33413;-56
2023/12/06 15:04:42;;;;;;;27.83;20.95;;;;;;;5.88;100.00;100212.81;5549646;32;33693;-56
2023/12/06 15:07:44;;;;;;;26.23;18.55;;;;;;;6.03;100.00;100217.50;5549409;32;34271;-56
2023/12/06 15:10:46;;;;;;;24.35;17.12;;;;;;;5.82;100.00;100218.34;5560981;32;33622;-56
2023/12/06 15:13:49;;;;;;;23.48;16.62;;;;;;;5.94;100.00;100223.56;5565566;32;33621;-56
2023/12/06 15:16:51;;;;;;;23.80;16.87;;;;;;;5.65;100.00;100213.13;5569340;32;33891;-56
2023/12/06 15:19:56;;;;;;;21.48;16.20;;;;;;;5.37;95.88;100216.84;5567166;32;34394;-56
2023/12/06 15:22:59;;;;;;;19.70;14.95;;;;;;;5.40;96.66;100219.00;5555400;32;34253;-56
2023/12/06 15:26:01;;;;;;;22.95;15.68;;;;;;;5.32;95.27;100222.09;5549889;32;34329;-56
2023/12/06 15:29:04;;;;;;;19.37;14.75;;;;;;;5.47;100.00;100219.63;5549840;32;34475;-56
2023/12/06 15:32:06;;;;;;;20.98;15.23;;;;;;;5.27;100.00;100211.44;5565252;32;33659;-56
2023/12/06 15:35:09;;;;;;;22.35;14.85;;;;;;;5.90;100.00;100225.88;5568734;32;33609;-56
2023/12/06 15:38:11;;;;;;;21.27;13.65;;;;;;;6.01;100.00;100211.62;5569168;32;33716;-56
2023/12/06 15:41:14;;;;;;;21.05;13.88;;;;;;;6.06;100.00;100222.34;5566956;32;33688;-56
2023/12/06 15:44:32;;;;;;;19.52;14.10;;;;;;;5.87;93.06;100232.50;5558222;32;33657;-56
2023/12/06 15:47:35;;;;;;;19.40;13.80;;;;;;;5.89;95.69;100232.25;5557108;32;34307;-56
2023/12/06 15:50:37;;;;;;;21.67;14.38;;;;;;;6.15;100.00;100229.84;5554066;32;33465;-56
2023/12/06 15:53:40;;;;;;;22.70;15.23;;;;;;;6.30;100.00;100229.97;5562622;32;33586;-56
2023/12/06 15:56:44;;;;;;;22.67;15.43;;;;;;;6.65;100.00;100220.59;5567752;32;33682;-56
2023/12/06 15:59:48;;;;;;;20.80;14.30;;;;;;;6.22;96.88;100225.09;5569315;32;33589;-56
2023/12/06 16:02:50;;;;;;;22.92;15.65;;;;;;;6.04;100.00;100227.09;5557977;32;34262;-56
2023/12/06 16:05:54;;;;;;;21.55;15.30;;;;;;;5.98;100.00;100225.44;5561269;32;34607;-55
2023/12/06 16:09:00;;;;;;;22.15;14.50;;;;;;;6.22;100.00;100227.75;5563038;32;33718;-59
2023/12/06 16:12:04;;;;;;;17.90;13.65;;;;;;;5.99;100.00;100229.69;5549202;32;33709;-55
2023/12/06 16:15:07;;;;;;;22.95;13.55;;;;;;;5.88;95.48;100226.13;5549236;32;33688;-55
2023/12/06 16:18:10;;;;;;;19.20;13.38;;;;;;;5.84;100.00;100234.88;5549127;32;34403;-55
2023/12/06 16:21:12;;;;;;;18.50;12.73;;;;;;;5.96;100.00;100237.37;5549373;32;34414;-55
2023/12/06 16:24:15;;;;;;;20.25;13.70;;;;;;;5.68;94.96;100233.91;5549567;32;33635;-56
2023/12/06 16:27:17;;;;;;;17.92;12.95;;;;;;;5.69;100.00;100240.84;5549294;32;33656;-55
2023/12/06 16:30:20;;;;;;;14.93;11.98;;;;;;;5.99;100.00;100236.87;5549100;32;33854;-55
2023/12/06 16:33:24;;;;;;;19.23;13.05;;;;;;;5.68;96.25;100246.41;5549020;32;33695;-55
2023/12/06 16:36:27;;;;;;;208.05;151.25;;;;;;;5.33;94.14;100252.94;5548927;32;33590;-55
2023/12/06 16:39:29;;;;;;;21.17;15.35;;;;;;;5.33;100.00;100250.28;5548859;32;33613;-56
